»·PEaware :: N414 KBUR-KLAS

N414 :: KBUR-KLAS

FLIGHT INFORMATION

Flight Status: Arrived
Operator: Privately registered:
United States
More flights under this callsign
Pilot: Ahmed A. (2932)
Aircraft: BRITISH AERO BAe-125-700/800
(H25B)
More flights by this aircraft type
Origin: KBUR Bob Hope-Burbank
United States
Destination: KLAS McCarran Intl
United States
More flights between these airports :: More routes between these airports
Route: VNY3 DAG MISEN KEPEC6
File this flight plan on PilotEdge
Remarks: I-5 Rating
Altitude:
(Current/Filed)
27,000ft
Speed:
(Current/Filed)
300kts
Departed: 05-Dec-17 08:01 PM
Arrived: 05-Dec-17 08:42 PM
Distance/Time
Traveled:
193nm/0:41
Distance/Time
To Go:
Arrived

Flight Plot

Page will automatically refresh every two minutes.

Flight plan parsing failed; only flown route is shown


Map Options




Map Legend


Flown Route
Filed Route
Departure Airport
Arrival Airport
Navaid (VOR, NDB)
Fix

Horizontal Profiles

Position Reports

Time Latitude Longitude Heading Altitude Ground
Speed
05-Dec-17 19:47 34.196857 -118.352175 180 783ft 0kts
05-Dec-17 19:48 34.196857 -118.352175 180 783ft 0kts
05-Dec-17 19:49 34.196857 -118.352175 180 783ft 0kts
05-Dec-17 19:50 34.196857 -118.352175 180 783ft 0kts
05-Dec-17 19:51 34.196857 -118.352175 180 783ft 0kts
05-Dec-17 19:52 34.196857 -118.352175 180 783ft 0kts
05-Dec-17 19:53 34.196857 -118.352175 180 783ft 0kts
05-Dec-17 19:54 34.196857 -118.352175 180 783ft 0kts
05-Dec-17 19:55 34.196857 -118.352175 180 783ft 0kts
05-Dec-17 19:56 34.196857 -118.352175 180 783ft 0kts
05-Dec-17 19:57 34.196857 -118.352175 180 783ft 0kts
05-Dec-17 19:58 34.196857 -118.352175 180 783ft 0kts
05-Dec-17 19:59 34.196857 -118.352175 180 783ft 0kts
05-Dec-17 20:00 34.196856 -118.352175 179 783ft 0kts
05-Dec-17 20:01 34.196855 -118.352175 179 783ft 0kts
05-Dec-17 20:02 34.196872 -118.351768 22 783ft 12kts
05-Dec-17 20:03 34.197064 -118.355508 256 783ft 7kts
05-Dec-17 20:04 34.194503 -118.355179 211 783ft 12kts
05-Dec-17 20:05 34.194572 -118.355091 256 783ft 0kts
05-Dec-17 20:06 34.200630 -118.357262 347 783ft 116kts
05-Dec-17 20:07 34.229144 -118.394854 295 3089ft 200kts
05-Dec-17 20:08 34.282917 -118.438059 291 3982ft 265kts
05-Dec-17 20:09 34.251523 -118.513544 227 4630ft 265kts
05-Dec-17 20:10 34.251615 -118.583164 334 6617ft 250kts
05-Dec-17 20:11 34.319805 -118.566473 29 8671ft 258kts
05-Dec-17 20:12 34.361812 -118.495534 53 10650ft 272kts
05-Dec-17 20:13 34.411875 -118.414620 51 12694ft 327kts
05-Dec-17 20:14 34.472233 -118.319130 50 14737ft 387kts
05-Dec-17 20:15 34.540104 -118.212337 49 18151ft 407kts
05-Dec-17 20:16 34.609592 -118.101200 52 21645ft 418kts
05-Dec-17 20:17 34.641065 -117.969120 81 25445ft 404kts
05-Dec-17 20:18 34.656334 -117.832229 81 27025ft 437kts
05-Dec-17 20:19 34.685692 -117.679455 71 27003ft 490kts
05-Dec-17 20:20 34.727081 -117.517706 71 27000ft 505kts
05-Dec-17 20:21 34.768693 -117.354039 71 26999ft 505kts
05-Dec-17 20:22 34.809947 -117.190763 72 27000ft 505kts
05-Dec-17 20:23 34.851156 -117.026633 72 27000ft 508kts
05-Dec-17 20:24 34.892480 -116.860982 72 27000ft 514kts
05-Dec-17 20:25 34.933232 -116.696527 72 26771ft 489kts
05-Dec-17 20:26 34.985944 -116.550523 48 26219ft 460kts
05-Dec-17 20:27 35.073602 -116.439736 43 25133ft 443kts
05-Dec-17 20:28 35.155252 -116.337404 43 22612ft 407kts
05-Dec-17 20:29 35.230766 -116.242038 43 19310ft 368kts
05-Dec-17 20:30 35.298707 -116.155918 41 16348ft 340kts
05-Dec-17 20:31 35.363902 -116.075196 42 14050ft 328kts
05-Dec-17 20:32 35.424668 -115.998545 44 12996ft 284kts
05-Dec-17 20:33 35.479950 -115.928630 45 13001ft 294kts
05-Dec-17 20:34 35.538170 -115.854766 44 13000ft 305kts
05-Dec-17 20:35 35.597803 -115.778936 46 13000ft 311kts
05-Dec-17 20:36 35.658242 -115.701898 46 12993ft 315kts
05-Dec-17 20:37 35.709212 -115.615188 61 10993ft 308kts
05-Dec-17 20:38 35.749278 -115.523579 62 8897ft 300kts
05-Dec-17 20:39 35.789380 -115.435537 62 7069ft 282kts
05-Dec-17 20:40 35.824480 -115.359940 62 6993ft 230kts
05-Dec-17 20:41 35.854549 -115.296025 56 6999ft 205kts
05-Dec-17 20:42 35.909157 -115.260101 20 5968ft 242kts
05-Dec-17 20:43 35.962037 -115.237251 25 4975ft 167kts
05-Dec-17 20:44 36.001144 -115.212258 25 4112ft 153kts
05-Dec-17 20:45 36.038685 -115.191218 24 3142ft 141kts
05-Dec-17 20:46 36.072300 -115.171971 24 2329ft 124kts
05-Dec-17 20:47 36.089258 -115.162509 286 2186ft 1kts
05-Dec-17 20:48 36.089022 -115.164842 201 2186ft 16kts
05-Dec-17 20:49 36.087235 -115.166676 295 2186ft 0kts

Navigation Log

Ident Type
Flight plan parsing failed, navigation log unavailable